Aérodrome :
LOGIN :

S'inscrire | Disclaimer

   EN    FR    IT 

 










Légende :    VFR   VFR Marginal   IFR   IFR Intensif   IFR Très Intensif
Visi : 
Plafond : 
>= 8 km
>= 3000ft
5 à 8 km
1000 à 3000 ft
1500m à 5 km
500 à 1000 ft
800 à 1500m
200 à 500 ft
< 800m
< 200 ft
Symboles :   Orages  Brouillard  Fortes neiges  Fortes précipitations  Vent > 20 kt
SIGMETs :   Divers  Orages  Givrage  Turbulence  Onde Orograph.  Cendres Volcan.






- Altitude de l'aérodrome : 935 ft


EBFS - Florennes

METARs EXPIRÉS :
  • 171525Z AUTO 34007KT 9999 OVC140/// 04/02 Q1009 BLU
  • 171455Z AUTO 35006KT 9999 OVC140/// 04/02 Q1009 BLU
  • 171425Z AUTO 35006KT 9999 BKN150/// 04/02 Q1009 BLU

TAF TAF EBFS
Valide du 17 à 13h jusqu'au 17 à 22h UTC


171141Z 1713/1722 01008G18KT 9999 BKN150 BKN220
BECMG 1717/1719 BKN100
BECMG 1719/1721 4000 BR SCT004 BKN006
TEMPO 1721/1722 3000 -RADZ SCT003 BKN005



MET'MAP, la Météo Aéronautique d'un coup d'oeil ! - Copyright ORBIFLY Décembre 2007 - Disclaimer

ORBIFLY MET'MAP TEAM :

Programmation & Développement : Alexandra Zaïnal
Conception & Développement : Baudouin d'Aumeries
Co-Programmation & Développement : Marc-Olivier Méhu
Soutien technique & logistique : Manuel Goepfert

Contact : metmap@orbifly.com




SOURCES & CREDITS :

   NOAA